Time;durP1;ratioP1;P1;durP2;ratioP2;P2;SDS_P1;SDS_P2;PMS_P1;PMS_P2;Temp;Humidity;BMP_temperature;BMP_pressure;BME280_temperature;BME280_humidity;BME280_pressure;Samples;Min_cycle;Max_cycle;Signal;HPM_P1;HPM_P2
2023/02/19 00:01:37;;;;;;;3.00;1.98;;;10.70;99.90;;;9.79;100.00;102572.66;4172308;28;20099;-79
2023/02/19 00:03:40;;;;;;;4.18;2.28;;;10.70;99.90;;;9.75;100.00;102574.66;4167658;28;20057;-78
2023/02/19 00:05:41;;;;;;;2.58;2.03;;;10.70;99.90;;;9.77;100.00;102585.94;4167716;28;20045;-78
2023/02/19 00:07:42;;;;;;;3.38;2.65;;;10.70;99.90;;;9.74;100.00;102582.66;4170900;28;20525;-78
2023/02/19 00:09:43;;;;;;;3.90;2.25;;;10.70;99.90;;;9.67;100.00;102579.63;4151240;28;20021;-78
2023/02/19 00:11:45;;;;;;;3.30;2.20;;;10.60;99.90;;;9.75;100.00;102594.91;4168717;28;20022;-79
2023/02/19 00:13:49;;;;;;;5.00;2.40;;;10.60;99.90;;;9.75;100.00;102598.38;4167890;28;20033;-79
2023/02/19 00:15:50;;;;;;;3.65;2.40;;;10.60;99.90;;;9.77;100.00;102596.47;4167851;28;20029;-78
2023/02/19 00:17:51;;;;;;;3.78;2.40;;;10.60;99.90;;;9.66;100.00;102577.06;4168449;28;20036;-78
2023/02/19 00:19:52;;;;;;;5.65;3.45;;;10.60;99.90;;;9.71;100.00;102588.13;4168800;28;20476;-78
2023/02/19 00:21:53;;;;;;;4.25;2.70;;;10.60;99.90;;;9.73;100.00;102595.00;4167268;28;20030;-78
2023/02/19 00:24:01;;;;;;;4.70;2.47;;;10.60;99.90;;;9.75;100.00;102600.16;4168537;28;20505;-78
2023/02/19 00:26:11;;;;;;;4.35;2.40;;;10.60;99.90;;;9.66;100.00;102583.19;4167556;28;20521;-78
2023/02/19 00:28:12;;;;;;;4.00;2.70;;;10.60;99.90;;;9.69;100.00;102598.78;4179577;28;20563;-79
2023/02/19 00:30:13;;;;;;;3.47;2.17;;;10.60;99.90;;;9.66;100.00;102598.16;4167663;28;20032;-78
2023/02/19 00:32:14;;;;;;;4.72;2.05;;;10.60;99.90;;;9.53;100.00;102579.69;4184173;28;20021;-78
2023/02/19 00:34:15;;;;;;;4.28;2.08;;;10.50;99.90;;;9.54;100.00;102575.28;4167417;28;20112;-79
2023/02/19 00:36:17;;;;;;;3.60;1.90;;;10.50;99.90;;;9.52;100.00;102572.75;4167587;28;20087;-79
2023/02/19 00:38:18;;;;;;;4.90;2.20;;;10.50;99.90;;;9.53;100.00;102569.16;4176687;28;20029;-78
2023/02/19 00:40:19;;;;;;;6.47;2.50;;;10.50;99.90;;;9.61;100.00;102580.03;4161270;28;20026;-78
2023/02/19 00:42:19;;;;;;;4.53;2.42;;;10.50;99.90;;;9.59;100.00;102574.00;4184105;28;20029;-78
2023/02/19 00:44:20;;;;;;;3.60;2.28;;;10.50;99.90;;;9.57;100.00;102580.34;4166890;28;20072;-78
2023/02/19 00:46:25;;;;;;;4.60;2.35;;;10.50;99.90;;;9.54;100.00;102578.75;4174602;28;20064;-78
2023/02/19 00:48:26;;;;;;;5.57;2.10;;;10.50;99.90;;;9.51;100.00;102573.69;4174556;28;20108;-79
2023/02/19 00:50:27;;;;;;;3.40;2.17;;;10.50;99.90;;;9.48;100.00;102573.06;4171593;28;20509;-79
2023/02/19 00:52:28;;;;;;;3.63;2.35;;;10.40;99.90;;;9.43;100.00;102570.75;4167642;28;20053;-78
2023/02/19 00:54:30;;;;;;;4.43;2.25;;;10.40;99.90;;;9.38;100.00;102560.50;4157782;28;20122;-79
2023/02/19 00:56:31;;;;;;;5.10;2.40;;;10.40;99.90;;;9.44;100.00;102572.41;4177984;28;20022;-79
2023/02/19 00:58:32;;;;;;;3.40;2.03;;;10.40;99.90;;;9.46;100.00;102581.09;4168360;28;20102;-79
2023/02/19 01:00:33;;;;;;;4.28;2.45;;;10.40;99.90;;;9.46;100.00;102586.34;4168669;28;20030;-78
2023/02/19 01:02:34;;;;;;;6.00;2.85;;;10.40;99.90;;;9.44;100.00;102575.91;4151010;28;20076;-78
2023/02/19 01:04:35;;;;;;;3.97;2.60;;;10.40;99.90;;;9.38;100.00;102564.94;4167133;28;20029;-78
2023/02/19 01:06:36;;;;;;;4.47;2.70;;;10.40;99.90;;;9.36;100.00;102565.06;4175785;28;20025;-79
2023/02/19 01:08:37;;;;;;;5.20;2.85;;;10.40;99.90;;;9.48;100.00;102575.69;4167227;28;20028;-78
2023/02/19 01:10:38;;;;;;;5.45;2.85;;;10.30;99.90;;;9.45;100.00;102568.84;4183603;28;20025;-78
2023/02/19 01:12:39;;;;;;;5.40;2.90;;;10.40;99.90;;;9.49;100.00;102565.06;4171327;28;20180;-78
2023/02/19 01:14:40;;;;;;;5.85;2.83;;;10.30;99.90;;;9.34;100.00;102548.53;4171592;28;20040;-78
2023/02/19 01:16:41;;;;;;;3.95;2.30;;;10.30;99.90;;;9.36;100.00;102551.03;4177188;28;20492;-78
2023/02/19 01:18:43;;;;;;;3.20;2.45;;;10.40;99.90;;;9.36;100.00;102559.78;4170387;28;20033;-78
2023/02/19 01:20:44;;;;;;;4.55;2.47;;;10.40;99.90;;;9.45;100.00;102572.34;4170369;28;20105;-78
2023/02/19 01:22:45;;;;;;;5.85;2.10;;;10.40;99.90;;;9.38;100.00;102563.16;4153986;28;20087;-78
2023/02/19 01:24:46;;;;;;;4.82;1.88;;;10.30;99.90;;;9.33;100.00;102545.97;4170005;28;20525;-78
2023/02/19 01:26:47;;;;;;;6.30;2.13;;;10.30;99.90;;;9.32;100.00;102531.13;4174527;28;20049;-78
2023/02/19 01:28:48;;;;;;;4.50;2.28;;;10.30;99.90;;;9.36;100.00;102536.09;4171613;28;20100;-78
2023/02/19 01:30:49;;;;;;;4.20;2.42;;;10.30;99.90;;;9.36;100.00;102548.41;4153983;28;20024;-78
2023/02/19 01:32:49;;;;;;;3.28;1.80;;;10.30;99.90;;;9.36;100.00;102541.34;4169389;28;20033;-78
2023/02/19 01:34:50;;;;;;;9.40;2.78;;;10.30;99.90;;;9.33;100.00;102538.94;4186705;28;20029;-78
2023/02/19 01:36:51;;;;;;;4.05;2.28;;;10.20;99.90;;;9.36;100.00;102551.88;4177280;28;20463;-78
2023/02/19 01:38:53;;;;;;;4.78;2.33;;;10.30;99.90;;;9.36;100.00;102559.78;4170933;28;20029;-78
2023/02/19 01:41:04;;;;;;;7.03;2.45;;;10.20;99.90;;;9.32;100.00;102552.19;4169803;28;20027;-78
2023/02/19 01:43:13;;;;;;;5.00;2.53;;;10.30;99.90;;;9.32;100.00;102545.13;4170230;28;20029;-79
2023/02/19 01:45:42;;;;;;;7.10;2.60;;;10.20;99.90;;;9.27;100.00;102525.31;4170007;28;20064;-78
2023/02/19 01:47:44;;;;;;;5.75;3.05;;;10.20;99.90;;;9.29;100.00;102520.78;4181492;28;20095;-78
2023/02/19 01:49:55;;;;;;;4.20;2.33;;;10.20;99.90;;;9.31;100.00;102518.91;4169908;28;20025;-78
2023/02/19 01:52:17;;;;;;;3.80;2.35;;;10.20;99.90;;;9.27;100.00;102522.69;4169670;28;20394;-78
2023/02/19 01:54:21;;;;;;;2.50;1.90;;;10.20;99.90;;;9.24;100.00;102529.00;4170875;28;20056;-78
2023/02/19 01:56:23;;;;;;;4.60;2.55;;;10.10;99.90;;;9.22;100.00;102538.81;4175021;28;20024;-78
2023/02/19 01:58:28;;;;;;;3.00;2.03;;;10.10;99.90;;;9.16;100.00;102535.75;4174486;28;20037;-78
2023/02/19 02:00:29;;;;;;;;;;;10.10;99.90;;;9.15;100.00;102540.16;4157217;28;20056;-78
2023/02/19 02:02:30;;;;;;;4.65;1.92;;;10.10;99.90;;;9.12;100.00;102527.22;4163249;28;20395;-78
2023/02/19 02:04:32;;;;;;;3.80;1.90;;;10.00;99.90;;;9.16;100.00;102533.13;4170826;28;20508;-78
2023/02/19 02:06:43;;;;;;;3.90;2.50;;;10.00;99.90;;;9.13;100.00;102525.41;4176872;28;20025;-78
2023/02/19 02:11:04;;;;;;;4.63;2.15;;;10.10;99.90;;;9.13;100.00;102538.59;4186369;28;20072;-78
2023/02/19 02:13:05;;;;;;;5.07;2.35;;;10.10;99.90;;;9.13;100.00;102542.06;4186212;28;20029;-78
2023/02/19 02:15:08;;;;;;;3.38;1.92;;;10.00;99.90;;;9.17;100.00;102547.97;4186153;28;20025;-78
2023/02/19 02:17:27;;;;;;;3.95;2.08;;;10.10;99.90;;;9.17;100.00;102550.59;4169245;28;20079;-78
2023/02/19 02:20:24;;;;;;;6.15;2.75;;;10.00;99.90;;;9.21;100.00;102566.09;4169762;28;20037;-78
2023/02/19 02:22:33;;;;;;;;;;;10.10;99.90;;;9.16;100.00;102551.53;4163533;28;20036;-78
2023/02/19 02:25:07;;;;;;;3.22;2.20;;;10.10;99.90;;;9.20;100.00;102543.31;4185201;28;19995;-78
2023/02/19 02:27:38;;;;;;;5.03;2.50;;;10.10;99.90;;;9.12;100.00;102523.72;4156321;28;20080;-78
2023/02/19 02:29:57;;;;;;;4.97;2.60;;;10.10;99.90;;;9.16;100.00;102526.06;4154378;28;20033;-78
2023/02/19 02:32:09;;;;;;;5.15;2.50;;;10.10;99.90;;;9.19;100.00;102538.19;4169773;28;20451;-78
2023/02/19 02:34:23;;;;;;;4.40;2.88;;;10.10;99.90;;;9.22;100.00;102556.41;4166496;28;20435;-78
2023/02/19 02:36:38;;;;;;;3.75;2.92;;;10.10;99.90;;;9.15;100.00;102549.84;4162324;28;20059;-78
2023/02/19 02:38:43;;;;;;;4.75;3.08;;;10.10;99.90;;;9.21;100.00;102545.00;4175965;28;20378;-78
2023/02/19 02:40:45;;;;;;;7.30;4.47;;;10.10;99.90;;;9.26;100.00;102552.59;4169011;28;20424;-78
2023/02/19 02:42:46;;;;;;;7.82;4.82;;;10.10;99.90;;;9.21;100.00;102546.81;4168985;28;20026;-78
2023/02/19 02:47:39;;;;;;;5.55;3.22;;;10.10;99.90;;;9.23;100.00;102543.13;4171653;28;20139;-78
2023/02/19 02:49:30;;;;;;;4.90;3.30;;;10.10;99.90;;;9.21;100.00;102546.81;4174421;28;20029;-78
2023/02/19 02:51:45;;;;;;;5.75;3.13;;;10.10;99.90;;;9.22;100.00;102551.13;4185826;28;20377;-78
2023/02/19 02:56:29;;;;;;;4.38;2.40;;;10.10;99.90;;;9.18;100.00;102541.75;4175047;28;20071;-78
2023/02/19 02:58:32;;;;;;;7.07;2.78;;;10.10;99.90;;;9.21;100.00;102544.16;4157693;28;20025;-78
2023/02/19 03:02:56;;;;;;;5.53;2.60;;;10.10;99.90;;;9.22;100.00;102551.13;4168952;28;20084;-78
2023/02/19 03:07:32;;;;;;;4.47;2.47;;;10.10;99.90;;;9.18;100.00;102533.84;4175405;28;20068;-78
2023/02/19 03:09:42;;;;;;;4.00;2.13;;;10.10;99.90;;;9.20;100.00;102538.06;4169802;28;20064;-78
2023/02/19 03:19:20;;;;;;;4.82;2.00;;;10.20;99.90;;;9.28;100.00;102556.00;4168914;28;20052;-78
2023/02/19 03:21:22;;;;;;;4.93;2.33;;;10.20;99.90;;;9.30;100.00;102554.09;4168644;28;20045;-78
2023/02/19 03:26:02;;;;;;;3.50;2.47;;;10.20;99.90;;;9.18;100.00;102533.84;4168424;28;20048;-78
2023/02/19 03:28:10;;;;;;;6.07;2.33;;;10.20;99.90;;;9.27;100.00;102547.25;4168077;28;20037;-78
2023/02/19 03:30:24;;;;;;;4.57;2.50;;;10.20;99.90;;;9.19;100.00;102530.28;4168335;28;20033;-78
2023/02/19 03:32:52;;;;;;;4.35;2.58;;;10.20;99.90;;;9.23;100.00;102542.25;4168811;28;20370;-78
2023/02/19 03:35:05;;;;;;;4.35;2.53;;;10.20;99.90;;;9.16;100.00;102531.31;4152101;28;20121;-78
2023/02/19 03:37:24;;;;;;;5.03;2.72;;;10.10;99.90;;;9.17;100.00;102543.53;4177322;28;20057;-78
2023/02/19 03:39:25;;;;;;;5.82;2.67;;;10.20;99.90;;;9.21;100.00;102546.81;4168758;28;20025;-78
2023/02/19 03:41:54;;;;;;;3.95;2.42;;;10.20;99.90;;;9.23;100.00;102551.00;4168185;28;20032;-78
2023/02/19 03:44:13;;;;;;;4.93;3.30;;;10.10;99.90;;;9.15;100.00;102534.91;4168440;28;20026;-78
2023/02/19 03:46:24;;;;;;;6.78;3.42;;;10.10;99.90;;;9.18;100.00;102533.84;4171533;28;20045;-78
2023/02/19 03:48:40;;;;;;;4.90;3.53;;;10.10;99.90;;;9.21;100.00;102534.50;4151931;28;20029;-78
2023/02/19 03:51:10;;;;;;;4.65;3.17;;;10.10;99.90;;;9.18;100.00;102528.56;4167920;28;20021;-78
2023/02/19 03:53:32;;;;;;;4.32;2.92;;;10.10;99.90;;;9.10;100.00;102520.34;4167978;28;20432;-78
2023/02/19 03:56:07;;;;;;;4.53;3.00;;;10.10;99.90;;;9.14;100.00;102532.38;4168370;28;20031;-78
2023/02/19 03:58:49;;;;;;;4.38;3.40;;;10.00;99.90;;;9.11;100.00;102540.50;4178273;28;20171;-78
2023/02/19 04:01:14;;;;;;;7.75;3.55;;;10.00;99.90;;;9.13;100.00;102538.59;4186110;28;20028;-78
2023/02/19 04:03:24;;;;;;;;;;;10.00;99.90;;;9.08;100.00;102543.31;4185981;28;20028;-78
2023/02/19 04:05:30;;;;;;;4.20;2.88;;;10.00;99.90;;;9.10;100.00;102541.41;4185587;28;19962;-78
2023/02/19 04:07:36;;;;;;;5.95;3.05;;;10.00;99.90;;;9.05;100.00;102530.38;4172051;28;20495;-78
2023/02/19 04:09:47;;;;;;;3.58;2.92;;;10.00;99.90;;;9.01;100.00;102528.88;4167587;28;20539;-78
2023/02/19 04:11:51;;;;;;;6.60;3.20;;;9.90;99.90;;;8.95;100.00;102521.38;4168150;28;20029;-78
2023/02/19 04:14:13;;;;;;;5.60;3.03;;;9.90;99.90;;;8.96;100.00;102533.63;4151351;28;20030;-78
2023/02/19 04:16:23;;;;;;;4.65;3.50;;;9.90;99.90;;;9.03;100.00;102546.25;4171083;28;20652;-78
2023/02/19 04:18:33;;;;;;;5.57;2.95;;;9.90;99.90;;;9.00;100.00;102535.06;4155370;28;20028;-78
2023/02/19 04:20:43;;;;;;;3.90;3.25;;;9.90;99.90;;;9.03;100.00;102542.75;4167893;28;20026;-78
2023/02/19 04:22:44;;;;;;;4.97;3.25;;;10.00;99.90;;;9.02;100.00;102543.72;4167420;28;20026;-78
2023/02/19 04:24:52;;;;;;;4.60;3.05;;;9.90;99.90;;;9.07;100.00;102549.53;4167620;28;20048;-78
2023/02/19 04:26:54;;;;;;;3.33;2.78;;;10.00;99.90;;;9.07;100.00;102547.75;4167516;28;20041;-78
2023/02/19 04:28:55;;;;;;;3.83;2.90;;;10.00;99.90;;;9.09;100.00;102551.09;4184249;28;20051;-78
2023/02/19 04:30:56;;;;;;;5.85;3.30;;;10.00;99.90;;;9.07;100.00;102539.00;4167911;28;20033;-78
2023/02/19 04:32:57;;;;;;;4.80;2.70;;;10.00;99.90;;;9.10;100.00;102541.41;4151175;28;20117;-78
2023/02/19 04:34:58;;;;;;;4.90;2.63;;;10.00;99.90;;;9.11;100.00;102533.41;4167612;28;20037;-78
2023/02/19 04:36:59;;;;;;;4.07;3.10;;;10.00;99.90;;;9.14;100.00;102541.09;4175135;28;20103;-78
2023/02/19 04:39:00;;;;;;;4.50;2.83;;;10.00;99.90;;;9.14;100.00;102538.47;4170175;28;20096;-78
2023/02/19 04:41:01;;;;;;;4.07;3.13;;;10.00;99.90;;;9.11;100.00;102537.84;4168682;28;20033;-78
2023/02/19 04:43:02;;;;;;;5.13;3.55;;;10.00;99.90;;;9.15;100.00;102549.84;4168619;28;20112;-78
2023/02/19 04:45:03;;;;;;;7.15;3.65;;;10.00;99.90;;;9.13;100.00;102557.88;4183969;28;20546;-78
2023/02/19 04:47:04;;;;;;;6.75;3.20;;;10.00;99.90;;;9.15;100.00;102557.75;4160857;28;20053;-78
2023/02/19 04:49:05;;;;;;;5.05;3.08;;;10.00;99.90;;;9.14;100.00;102553.44;4164751;28;20517;-78
2023/02/19 04:51:06;;;;;;;3.95;3.00;;;10.10;99.90;;;9.14;100.00;102550.81;4183789;28;20033;-78
2023/02/19 04:53:07;;;;;;;3.80;3.00;;;10.10;99.90;;;9.17;100.00;102555.88;4177932;28;20029;-78
2023/02/19 04:55:09;;;;;;;6.03;3.08;;;10.10;99.90;;;9.16;100.00;102559.44;4187549;28;20143;-78
2023/02/19 04:57:10;;;;;;;4.03;2.95;;;10.10;99.90;;;9.18;100.00;102565.44;4178317;28;20029;-78
2023/02/19 04:59:12;;;;;;;4.38;3.45;;;10.10;99.90;;;9.11;100.00;102559.72;4171156;28;20465;-78
2023/02/19 05:01:13;;;;;;;4.65;3.10;;;10.10;99.90;;;9.06;100.00;102542.56;4170615;28;20040;-78
2023/02/19 05:03:14;;;;;;;3.20;2.90;;;10.10;99.90;;;9.18;100.00;102560.16;4170556;28;20030;-78
2023/02/19 05:05:15;;;;;;;5.57;3.55;;;10.10;99.90;;;9.16;100.00;102567.34;4171596;28;20036;-78
2023/02/19 05:07:16;;;;;;;4.03;3.20;;;10.00;99.90;;;9.16;100.00;102567.34;4175220;28;20560;-78
2023/02/19 05:09:17;;;;;;;4.55;3.47;;;10.10;99.90;;;9.04;100.00;102547.09;4171488;28;20049;-78
2023/02/19 05:11:18;;;;;;;3.65;2.88;;;10.00;99.90;;;9.15;100.00;102565.63;4187346;28;20147;-78
2023/02/19 05:13:19;;;;;;;5.80;3.38;;;10.00;99.90;;;9.05;100.00;102546.16;4171517;28;20056;-78
2023/02/19 05:15:19;;;;;;;5.13;3.47;;;10.10;99.90;;;9.18;100.00;102568.91;4170515;28;20041;-78
2023/02/19 05:17:20;;;;;;;4.32;3.15;;;10.00;99.90;;;9.14;100.00;102570.06;4172932;28;20505;-78
2023/02/19 05:19:21;;;;;;;4.65;3.58;;;10.10;99.90;;;9.14;100.00;102580.59;4154010;28;20069;-78
2023/02/19 05:21:22;;;;;;;4.55;2.83;;;10.00;99.90;;;9.18;100.00;102589.13;4170050;28;20096;-78
2023/02/19 05:23:24;;;;;;;5.20;4.25;;;10.10;99.90;;;9.20;100.00;102595.16;4169992;28;20032;-78
2023/02/19 05:25:25;;;;;;;3.00;2.45;;;10.10;99.90;;;9.19;100.00;102577.66;4170087;28;20107;-78
2023/02/19 05:27:26;;;;;;;3.92;2.78;;;10.10;99.90;;;9.20;100.00;102600.44;4180598;28;20037;-78
2023/02/19 05:29:27;;;;;;;4.45;2.95;;;10.10;99.90;;;9.19;100.00;102593.47;4172942;28;20025;-78
2023/02/19 05:31:29;;;;;;;6.03;3.30;;;10.00;99.90;;;9.14;100.00;102592.94;4171419;28;20049;-78
2023/02/19 05:33:30;;;;;;;4.25;3.17;;;10.00;99.90;;;9.14;100.00;102582.41;4171355;28;20026;-78
2023/02/19 05:35:31;;;;;;;5.53;3.50;;;10.00;99.90;;;9.19;100.00;102604.00;4169951;28;20060;-78
2023/02/19 05:37:32;;;;;;;4.65;3.28;;;10.00;99.90;;;9.15;100.00;102603.34;4179296;28;20381;-78
2023/02/19 05:39:33;;;;;;;3.90;3.20;;;10.10;99.90;;;9.21;100.00;102610.00;4169884;28;20041;-79
2023/02/19 05:41:34;;;;;;;5.43;2.90;;;10.00;99.90;;;9.13;100.00;102583.34;4171580;28;20025;-78
2023/02/19 05:43:35;;;;;;;5.07;3.38;;;10.10;99.90;;;9.22;100.00;102603.78;4171118;28;20124;-78
2023/02/19 05:45:36;;;;;;;3.78;3.35;;;10.10;99.90;;;9.22;100.00;102604.66;4170884;28;20040;-78
2023/02/19 05:47:37;;;;;;;4.47;3.22;;;10.10;99.90;;;9.22;100.00;102602.00;4177989;28;20022;-78
2023/02/19 05:49:38;;;;;;;4.15;3.50;;;10.10;99.90;;;9.25;100.00;102606.22;4153432;28;20029;-78
2023/02/19 05:51:39;;;;;;;4.10;3.30;;;10.10;99.90;;;9.25;100.00;102604.44;4164690;28;20109;-78
2023/02/19 05:53:42;;;;;;;3.50;2.67;;;10.10;99.90;;;9.26;100.00;102608.75;4171794;28;20037;-78
2023/02/19 05:55:43;;;;;;;4.13;2.70;;;10.10;99.90;;;9.25;100.00;102608.84;4186345;28;20102;-78
2023/02/19 05:57:47;;;;;;;3.72;3.10;;;10.10;99.90;;;9.28;100.00;102608.66;4174752;28;20533;-78
2023/02/19 05:59:48;;;;;;;4.70;3.50;;;10.10;99.90;;;9.23;100.00;102608.94;4169989;28;20031;-78
2023/02/19 06:01:51;;;;;;;6.78;3.22;;;10.10;99.90;;;9.27;100.00;102613.06;4169605;28;20061;-78
2023/02/19 06:03:52;;;;;;;6.07;2.97;;;10.20;99.90;;;9.24;100.00;102613.28;4169859;28;20022;-78
2023/02/19 06:05:53;;;;;;;4.15;3.20;;;10.10;99.90;;;9.23;100.00;102611.56;4169683;28;20032;-78
2023/02/19 06:07:54;;;;;;;3.92;3.15;;;10.10;99.90;;;9.27;100.00;102614.84;4172003;28;20093;-78
2023/02/19 06:09:55;;;;;;;3.65;3.17;;;10.10;99.90;;;9.30;100.00;102622.56;4169475;28;20026;-78
2023/02/19 06:11:56;;;;;;;5.80;3.00;;;10.20;99.90;;;9.26;100.00;102606.09;4170841;28;20029;-78
2023/02/19 06:13:57;;;;;;;3.63;3.10;;;10.20;99.90;;;9.25;100.00;102604.44;4169678;28;20095;-78
2023/02/19 06:15:58;;;;;;;3.58;2.78;;;10.20;99.90;;;9.32;100.00;102625.91;4153230;28;20030;-78
2023/02/19 06:17:59;;;;;;;4.50;3.28;;;10.20;99.90;;;9.23;100.00;102606.31;4169580;28;20128;-78
2023/02/19 06:20:01;;;;;;;3.72;2.95;;;10.20;99.90;;;9.32;100.00;102620.66;4169606;28;20040;-78
2023/02/19 06:22:02;;;;;;;3.13;2.30;;;10.20;99.90;;;9.26;100.00;102610.53;4169380;28;20030;-78
2023/02/19 06:24:07;;;;;;;4.43;3.28;;;10.20;99.90;;;9.32;100.00;102620.66;4169316;28;20460;-78
2023/02/19 06:26:13;;;;;;;3.90;3.03;;;10.20;99.90;;;9.22;100.00;102609.06;4168973;28;20398;-78
2023/02/19 06:28:14;;;;;;;4.82;3.35;;;10.20;99.90;;;9.23;100.00;102616.84;4168927;28;20060;-78
2023/02/19 06:30:15;;;;;;;6.03;3.20;;;10.20;99.90;;;9.24;100.00;102622.97;4169182;28;20025;-78
2023/02/19 06:32:16;;;;;;;4.55;3.00;;;10.10;99.90;;;9.15;100.00;102613.88;4190967;28;20508;-78
2023/02/19 06:34:17;;;;;;;6.78;3.50;;;10.10;99.90;;;9.19;100.00;102611.91;4169145;28;20032;-78
2023/02/19 06:36:20;;;;;;;4.65;3.25;;;10.10;99.90;;;9.10;100.00;102601.97;4157735;28;20459;-78
2023/02/19 06:38:21;;;;;;;3.95;3.08;;;10.10;99.90;;;9.18;100.00;102610.19;4168874;28;20084;-78
2023/02/19 06:40:22;;;;;;;5.93;3.00;;;10.10;99.90;;;9.18;100.00;102615.47;4183996;28;20033;-78
2023/02/19 06:42:23;;;;;;;4.85;3.17;;;10.10;99.90;;;9.14;100.00;102619.25;4170608;28;20030;-78
2023/02/19 06:44:24;;;;;;;4.78;3.08;;;10.10;99.90;;;9.10;100.00;102618.63;4169258;28;20029;-78
2023/02/19 06:46:25;;;;;;;3.55;2.85;;;10.10;99.90;;;9.12;100.00;102629.88;4170507;28;20033;-78
2023/02/19 06:48:29;;;;;;;5.53;2.80;;;10.10;99.90;;;9.19;100.00;102638.22;4175239;28;20033;-78
2023/02/19 06:50:30;;;;;;;3.78;3.25;;;10.10;99.90;;;9.17;100.00;102638.31;4152291;28;20030;-78
2023/02/19 06:52:31;;;;;;;3.47;2.90;;;10.00;99.90;;;9.20;100.00;102637.28;4170163;28;20031;-78
2023/02/19 06:54:32;;;;;;;5.47;3.22;;;10.10;99.90;;;9.16;100.00;102635.78;4176282;28;20083;-78
2023/02/19 06:56:38;;;;;;;6.32;3.88;;;10.10;99.90;;;9.08;100.00;102631.00;4178936;28;20558;-78
2023/02/19 06:58:39;;;;;;;4.70;2.90;;;10.10;99.90;;;9.15;100.00;102645.47;4169823;28;20040;-78
2023/02/19 07:00:40;;;;;;;6.28;2.92;;;10.10;99.90;;;9.09;100.00;102631.88;4169075;28;20033;-78
2023/02/19 07:02:41;;;;;;;4.75;2.50;;;10.10;99.90;;;9.20;100.00;102647.81;4168561;28;20025;-78
2023/02/19 07:04:42;;;;;;;5.43;3.38;;;10.10;99.90;;;9.17;100.00;102646.22;4169988;28;20029;-78
2023/02/19 07:06:43;;;;;;;5.35;2.78;;;10.10;99.90;;;9.13;100.00;102636.00;4159911;28;20078;-78
2023/02/19 07:08:44;;;;;;;4.97;2.72;;;10.10;99.90;;;9.17;100.00;102643.56;4184477;28;20620;-79
2023/02/19 07:10:45;;;;;;;3.90;2.67;;;10.10;99.90;;;9.15;100.00;102644.63;4168537;28;20021;-78
2023/02/19 07:12:46;;;;;;;4.82;2.22;;;10.00;99.90;;;9.17;100.00;102648.84;4169774;28;20029;-78
2023/02/19 07:14:47;;;;;;;4.80;1.67;;;10.00;99.90;;;9.13;100.00;102651.78;4168406;28;20602;-78
2023/02/19 07:16:48;;;;;;;6.90;1.40;;;10.00;99.90;;;9.11;100.00;102643.16;4175433;28;20507;-78
2023/02/19 07:18:49;;;;;;;3.97;1.50;;;10.00;99.90;;;9.16;100.00;102644.53;4168562;28;20017;-78
2023/02/19 07:20:50;;;;;;;7.95;2.05;;;10.10;99.90;;;9.23;100.00;102645.81;4168624;28;20116;-78
2023/02/19 07:22:51;;;;;;;4.35;1.48;;;10.10;99.90;;;9.21;100.00;102638.97;4168232;28;20449;-78
2023/02/19 07:24:52;;;;;;;3.38;1.33;;;10.10;99.90;;;9.19;100.00;102643.50;4168108;28;20045;-78
2023/02/19 07:26:53;;;;;;;2.92;1.52;;;10.10;99.90;;;9.27;100.00;102651.72;4171297;28;20048;-78
2023/02/19 07:28:54;;;;;;;3.30;1.33;;;10.10;99.90;;;9.28;100.00;102656.06;4168221;28;20497;-79
2023/02/19 07:31:01;;;;;;;4.38;1.40;;;10.10;99.90;;;9.30;100.00;102660.28;4168717;28;20020;-78
2023/02/19 07:33:02;;;;;;;6.70;1.83;;;10.10;99.90;;;9.27;100.00;102655.22;4168101;28;20033;-78
2023/02/19 07:35:03;;;;;;;5.75;1.52;;;10.20;99.90;;;9.29;100.00;102650.66;4152187;28;20416;-78
2023/02/19 07:37:04;;;;;;;2.80;1.17;;;10.20;99.90;;;9.28;100.00;102641.09;4168246;28;20057;-78
2023/02/19 07:39:05;;;;;;;3.83;1.42;;;10.20;99.90;;;9.38;100.00;102663.22;4167838;28;20120;-78
2023/02/19 07:41:06;;;;;;;3.05;1.25;;;10.30;99.90;;;9.41;100.00;102663.03;4151722;28;20076;-78
2023/02/19 07:43:07;;;;;;;3.28;1.30;;;10.30;99.90;;;9.37;100.00;102656.31;4168353;28;20109;-78
2023/02/19 07:45:08;;;;;;;5.63;1.75;;;10.30;99.90;;;9.34;100.00;102653.88;4168201;28;20037;-78
2023/02/19 07:47:09;;;;;;;3.50;1.30;;;10.30;99.90;;;9.44;100.00;102665.47;4179342;28;20025;-78
2023/02/19 07:49:10;;;;;;;3.95;1.13;;;10.30;99.90;;;9.44;100.00;102654.06;4168168;28;20041;-78
2023/02/19 07:51:17;;;;;;;4.20;1.77;;;10.40;99.90;;;9.54;100.00;102668.34;4168178;28;20437;-78
2023/02/19 07:53:19;;;;;;;5.60;1.58;;;10.40;99.90;;;9.51;100.00;102668.53;4168039;28;20068;-79
2023/02/19 07:55:20;;;;;;;4.70;1.15;;;10.40;99.90;;;9.65;100.00;102676.34;4165315;28;20022;-78
2023/02/19 07:57:21;;;;;;;4.72;1.70;;;10.50;99.90;;;9.72;100.00;102667.09;4172447;28;20040;-78
2023/02/19 07:59:22;;;;;;;9.02;2.30;;;10.50;99.90;;;9.61;100.00;102656.44;4168141;28;20037;-78
2023/02/19 08:03:44;;;;;;;7.13;1.80;;;10.60;99.90;;;9.80;100.00;102672.69;4168057;28;20033;-78
2023/02/19 08:05:45;;;;;;;3.15;1.05;;;10.60;99.90;;;9.87;100.00;102671.34;4151287;28;20038;-78
2023/02/19 08:07:46;;;;;;;6.28;1.38;;;10.70;99.90;;;9.81;100.00;102670.91;4174831;28;20075;-78
2023/02/19 08:13:17;;;;;;;5.28;1.20;;;10.70;99.90;;;9.97;100.00;102676.84;4167851;28;20521;-78
2023/02/19 08:14:30;;;;;;;7.80;1.15;;;10.80;99.90;;;10.03;100.00;102677.22;4168046;28;20036;-78
2023/02/19 08:16:30;;;;;;;7.13;1.23;;;10.90;99.90;;;10.14;100.00;102683.59;4155999;28;20508;-78
2023/02/19 08:18:32;;;;;;;3.95;1.00;;;10.90;99.90;;;10.20;100.00;102685.81;4167820;28;20032;-79
2023/02/19 08:20:33;;;;;;;9.02;2.28;;;11.00;99.90;;;10.14;100.00;102680.97;4166920;28;20036;-78
2023/02/19 08:22:34;;;;;;;8.77;1.70;;;11.00;99.90;;;10.23;100.00;102690.88;4167469;28;20032;-78
2023/02/19 08:24:36;;;;;;;4.38;1.40;;;11.10;99.90;;;10.27;100.00;102693.22;4167813;28;20025;-79
2023/02/19 08:26:37;;;;;;;6.53;1.45;;;11.10;99.90;;;10.37;100.00;102696.03;4169701;28;20038;-78
2023/02/19 08:28:38;;;;;;;5.85;1.67;;;11.20;99.90;;;10.42;100.00;102696.56;4167508;28;20041;-78
2023/02/19 08:30:44;;;;;;;7.60;2.10;;;11.20;99.90;;;10.51;100.00;102698.56;4167803;28;20053;-79
2023/02/19 08:32:44;;;;;;;4.43;0.88;;;11.30;99.90;;;10.47;100.00;102686.53;4167712;28;20029;-78
2023/02/19 08:34:45;;;;;;;15.45;3.13;;;11.30;99.90;;;10.46;100.00;102692.75;4151019;28;20521;-78
2023/02/19 08:36:46;;;;;;;5.38;1.42;;;11.40;99.90;;;10.53;100.00;102694.03;4171837;28;20083;-78
2023/02/19 08:38:47;;;;;;;6.45;1.38;;;11.40;99.90;;;10.54;100.00;102703.63;4167229;28;20018;-78
2023/02/19 08:40:48;;;;;;;5.20;1.40;;;11.40;99.90;;;10.59;100.00;102706.78;4167278;28;20026;-79
2023/02/19 08:42:49;;;;;;;4.00;1.15;;;11.50;99.90;;;10.67;100.00;102709.72;4184006;28;20109;-78
2023/02/19 08:44:50;;;;;;;8.38;1.67;;;11.50;99.90;;;10.65;100.00;102709.00;4167742;28;20037;-79
2023/02/19 08:46:51;;;;;;;7.13;1.67;;;11.50;99.90;;;10.62;100.00;102696.00;4175740;28;20032;-78
2023/02/19 08:48:52;;;;;;;5.00;1.40;;;11.60;99.90;;;10.77;100.00;102705.47;4171653;28;20056;-78
2023/02/19 08:50:59;;;;;;;6.05;1.20;;;11.60;99.90;;;10.89;100.00;102715.16;4167470;28;20017;-79
2023/02/19 08:53:01;;;;;;;7.28;1.42;;;11.70;99.90;;;10.93;100.00;102710.50;4150888;28;20433;-79
2023/02/19 08:55:04;;;;;;;4.95;1.50;;;11.70;99.90;;;10.95;100.00;102716.53;4180348;28;20017;-78
2023/02/19 08:57:04;;;;;;;5.97;1.85;;;11.80;99.90;;;10.92;100.00;102709.66;4157435;28;20084;-79
2023/02/19 08:59:05;;;;;;;9.43;1.98;;;11.80;99.90;;;10.86;100.00;102719.81;4167549;28;20104;-78
2023/02/19 09:01:17;;;;;;;11.05;1.75;;;11.80;99.90;;;10.84;100.00;102712.00;4167361;28;20036;-78
2023/02/19 09:03:17;;;;;;;8.00;1.90;;;11.80;99.90;;;10.86;100.00;102723.31;4167410;28;20091;-78
2023/02/19 09:05:18;;;;;;;4.07;1.23;;;11.80;99.90;;;10.90;100.00;102714.19;4167132;28;20029;-79